sensor_id;sensor_type;location;lat;lon;timestamp;P1;durP1;ratioP1;P2;durP2;ratioP2
12768;SDS011;6448;48.916;8.990;2023-04-01T00:00:56;0.98;;;0.75;;
12768;SDS011;6448;48.916;8.990;2023-04-01T00:02:22;0.65;;;0.60;;
12768;SDS011;6448;48.916;8.990;2023-04-01T00:03:28;0.60;;;0.60;;
12768;SDS011;6448;48.916;8.990;2023-04-01T00:04:35;0.75;;;0.65;;
12768;SDS011;6448;48.916;8.990;2023-04-01T00:05:45;0.63;;;0.60;;
12768;SDS011;6448;48.916;8.990;2023-04-01T00:06:51;0.90;;;0.80;;
12768;SDS011;6448;48.916;8.990;2023-04-01T00:07:58;0.80;;;0.70;;
12768;SDS011;6448;48.916;8.990;2023-04-01T00:09:02;1.05;;;0.82;;
12768;SDS011;6448;48.916;8.990;2023-04-01T00:10:22;0.80;;;0.80;;
12768;SDS011;6448;48.916;8.990;2023-04-01T00:11:32;1.00;;;0.80;;
12768;SDS011;6448;48.916;8.990;2023-04-01T00:12:37;0.93;;;0.73;;
12768;SDS011;6448;48.916;8.990;2023-04-01T00:13:52;1.15;;;0.85;;
12768;SDS011;6448;48.916;8.990;2023-04-01T00:14:56;0.90;;;0.68;;
12768;SDS011;6448;48.916;8.990;2023-04-01T00:15:57;0.95;;;0.80;;
12768;SDS011;6448;48.916;8.990;2023-04-01T00:17:03;1.40;;;0.80;;
12768;SDS011;6448;48.916;8.990;2023-04-01T00:18:04;1.15;;;0.80;;
12768;SDS011;6448;48.916;8.990;2023-04-01T00:19:10;1.10;;;0.90;;
12768;SDS011;6448;48.916;8.990;2023-04-01T00:20:14;0.88;;;0.70;;
12768;SDS011;6448;48.916;8.990;2023-04-01T00:21:32;1.50;;;0.90;;
12768;SDS011;6448;48.916;8.990;2023-04-01T00:22:35;0.82;;;0.70;;
12768;SDS011;6448;48.916;8.990;2023-04-01T00:23:38;1.35;;;0.82;;
12768;SDS011;6448;48.916;8.990;2023-04-01T00:24:41;0.98;;;0.80;;
12768;SDS011;6448;48.916;8.990;2023-04-01T00:25:43;1.20;;;0.80;;
12768;SDS011;6448;48.916;8.990;2023-04-01T00:26:47;0.90;;;0.80;;
12768;SDS011;6448;48.916;8.990;2023-04-01T00:27:54;1.85;;;0.75;;
12768;SDS011;6448;48.916;8.990;2023-04-01T00:29:00;0.90;;;0.80;;
12768;SDS011;6448;48.916;8.990;2023-04-01T00:30:01;0.90;;;0.70;;
12768;SDS011;6448;48.916;8.990;2023-04-01T00:31:06;1.02;;;0.80;;
12768;SDS011;6448;48.916;8.990;2023-04-01T00:32:31;1.23;;;0.80;;
12768;SDS011;6448;48.916;8.990;2023-04-01T00:33:37;1.48;;;0.90;;
12768;SDS011;6448;48.916;8.990;2023-04-01T00:34:56;1.20;;;0.88;;
12768;SDS011;6448;48.916;8.990;2023-04-01T00:36:11;0.90;;;0.80;;
12768;SDS011;6448;48.916;8.990;2023-04-01T00:37:16;1.50;;;1.05;;
12768;SDS011;6448;48.916;8.990;2023-04-01T00:38:29;1.10;;;0.85;;
12768;SDS011;6448;48.916;8.990;2023-04-01T00:39:33;1.33;;;0.90;;
12768;SDS011;6448;48.916;8.990;2023-04-01T00:40:38;1.17;;;0.80;;
12768;SDS011;6448;48.916;8.990;2023-04-01T00:41:54;1.27;;;0.90;;
12768;SDS011;6448;48.916;8.990;2023-04-01T00:43:00;1.17;;;0.90;;
12768;SDS011;6448;48.916;8.990;2023-04-01T00:44:18;1.27;;;0.90;;
12768;SDS011;6448;48.916;8.990;2023-04-01T00:45:29;1.13;;;0.80;;
12768;SDS011;6448;48.916;8.990;2023-04-01T00:46:38;1.85;;;1.00;;
12768;SDS011;6448;48.916;8.990;2023-04-01T00:47:50;1.40;;;1.00;;
12768;SDS011;6448;48.916;8.990;2023-04-01T00:48:52;1.67;;;0.90;;
12768;SDS011;6448;48.916;8.990;2023-04-01T00:49:57;1.30;;;0.90;;
12768;SDS011;6448;48.916;8.990;2023-04-01T00:51:22;1.40;;;0.80;;
12768;SDS011;6448;48.916;8.990;2023-04-01T00:52:35;1.25;;;0.82;;
12768;SDS011;6448;48.916;8.990;2023-04-01T00:54:03;1.20;;;1.00;;
12768;SDS011;6448;48.916;8.990;2023-04-01T00:55:27;1.17;;;0.90;;
12768;SDS011;6448;48.916;8.990;2023-04-01T00:56:40;1.38;;;1.00;;
12768;SDS011;6448;48.916;8.990;2023-04-01T00:58:08;1.60;;;1.00;;
12768;SDS011;6448;48.916;8.990;2023-04-01T00:59:33;1.73;;;1.00;;
12768;SDS011;6448;48.916;8.990;2023-04-01T01:01:36;1.30;;;0.98;;
12768;SDS011;6448;48.916;8.990;2023-04-01T01:03:04;1.20;;;0.90;;
12768;SDS011;6448;48.916;8.990;2023-04-01T01:04:30;1.20;;;0.90;;
12768;SDS011;6448;48.916;8.990;2023-04-01T01:06:11;0.83;;;0.70;;
12768;SDS011;6448;48.916;8.990;2023-04-01T01:09:32;0.90;;;0.80;;
12768;SDS011;6448;48.916;8.990;2023-04-01T01:12:58;1.45;;;1.00;;
12768;SDS011;6448;48.916;8.990;2023-04-01T01:14:59;1.08;;;0.80;;
12768;SDS011;6448;48.916;8.990;2023-04-01T01:16:58;1.43;;;0.87;;
12768;SDS011;6448;48.916;8.990;2023-04-01T01:19:01;0.88;;;0.75;;
12768;SDS011;6448;48.916;8.990;2023-04-01T01:20:48;1.30;;;0.90;;
12768;SDS011;6448;48.916;8.990;2023-04-01T01:22:35;1.38;;;0.90;;
12768;SDS011;6448;48.916;8.990;2023-04-01T01:25:32;1.40;;;0.90;;
12768;SDS011;6448;48.916;8.990;2023-04-01T01:28:44;1.55;;;1.00;;
12768;SDS011;6448;48.916;8.990;2023-04-01T01:30:33;1.02;;;0.85;;
12768;SDS011;6448;48.916;8.990;2023-04-01T01:31:44;1.33;;;0.70;;
12768;SDS011;6448;48.916;8.990;2023-04-01T01:33:16;1.27;;;0.80;;
12768;SDS011;6448;48.916;8.990;2023-04-01T01:34:55;0.85;;;0.68;;
12768;SDS011;6448;48.916;8.990;2023-04-01T01:36:40;0.60;;;0.60;;
12768;SDS011;6448;48.916;8.990;2023-04-01T01:38:11;1.40;;;0.80;;
12768;SDS011;6448;48.916;8.990;2023-04-01T01:41:29;1.00;;;0.80;;
12768;SDS011;6448;48.916;8.990;2023-04-01T01:42:37;1.20;;;0.80;;
12768;SDS011;6448;48.916;8.990;2023-04-01T01:43:45;1.13;;;0.80;;
12768;SDS011;6448;48.916;8.990;2023-04-01T01:44:56;1.08;;;0.75;;
12768;SDS011;6448;48.916;8.990;2023-04-01T01:47:27;1.40;;;0.80;;
12768;SDS011;6448;48.916;8.990;2023-04-01T01:48:31;0.90;;;0.80;;
12768;SDS011;6448;48.916;8.990;2023-04-01T01:49:43;1.00;;;0.90;;
12768;SDS011;6448;48.916;8.990;2023-04-01T01:50:55;1.00;;;0.70;;
12768;SDS011;6448;48.916;8.990;2023-04-01T01:52:05;0.77;;;0.73;;
12768;SDS011;6448;48.916;8.990;2023-04-01T01:53:17;1.15;;;0.80;;
12768;SDS011;6448;48.916;8.990;2023-04-01T01:54:19;1.10;;;0.70;;
12768;SDS011;6448;48.916;8.990;2023-04-01T01:55:23;0.93;;;0.63;;
12768;SDS011;6448;48.916;8.990;2023-04-01T01:56:33;1.10;;;0.80;;
12768;SDS011;6448;48.916;8.990;2023-04-01T01:57:36;1.10;;;0.80;;
12768;SDS011;6448;48.916;8.990;2023-04-01T01:58:47;1.10;;;0.88;;
12768;SDS011;6448;48.916;8.990;2023-04-01T02:00:08;0.60;;;0.60;;
12768;SDS011;6448;48.916;8.990;2023-04-01T02:01:18;0.85;;;0.70;;
12768;SDS011;6448;48.916;8.990;2023-04-01T02:02:36;0.88;;;0.70;;
12768;SDS011;6448;48.916;8.990;2023-04-01T02:03:47;1.38;;;0.80;;
12768;SDS011;6448;48.916;8.990;2023-04-01T02:04:50;1.20;;;0.70;;
12768;SDS011;6448;48.916;8.990;2023-04-01T02:05:53;1.02;;;0.80;;
12768;SDS011;6448;48.916;8.990;2023-04-01T02:07:00;1.33;;;0.90;;
12768;SDS011;6448;48.916;8.990;2023-04-01T02:08:12;0.60;;;0.55;;
12768;SDS011;6448;48.916;8.990;2023-04-01T02:09:20;1.10;;;0.70;;
12768;SDS011;6448;48.916;8.990;2023-04-01T02:10:55;0.88;;;0.70;;
12768;SDS011;6448;48.916;8.990;2023-04-01T02:12:14;1.00;;;0.73;;
12768;SDS011;6448;48.916;8.990;2023-04-01T02:13:24;1.52;;;0.80;;
12768;SDS011;6448;48.916;8.990;2023-04-01T02:14:32;1.00;;;0.70;;
12768;SDS011;6448;48.916;8.990;2023-04-01T02:15:40;0.80;;;0.70;;
12768;SDS011;6448;48.916;8.990;2023-04-01T02:16:48;0.80;;;0.60;;
12768;SDS011;6448;48.916;8.990;2023-04-01T02:17:54;0.82;;;0.70;;
12768;SDS011;6448;48.916;8.990;2023-04-01T02:18:56;1.10;;;0.90;;
12768;SDS011;6448;48.916;8.990;2023-04-01T02:20:01;1.50;;;0.80;;
12768;SDS011;6448;48.916;8.990;2023-04-01T02:21:14;0.70;;;0.70;;
12768;SDS011;6448;48.916;8.990;2023-04-01T02:22:21;0.90;;;0.80;;
12768;SDS011;6448;48.916;8.990;2023-04-01T02:23:24;1.52;;;0.80;;
12768;SDS011;6448;48.916;8.990;2023-04-01T02:24:28;0.90;;;0.73;;
12768;SDS011;6448;48.916;8.990;2023-04-01T02:25:32;0.70;;;0.65;;
12768;SDS011;6448;48.916;8.990;2023-04-01T02:26:36;1.08;;;0.73;;
12768;SDS011;6448;48.916;8.990;2023-04-01T02:27:40;1.02;;;0.90;;
12768;SDS011;6448;48.916;8.990;2023-04-01T02:28:45;1.00;;;0.90;;
12768;SDS011;6448;48.916;8.990;2023-04-01T02:29:48;1.23;;;0.80;;
12768;SDS011;6448;48.916;8.990;2023-04-01T02:30:55;0.82;;;0.77;;
12768;SDS011;6448;48.916;8.990;2023-04-01T02:32:17;1.33;;;0.80;;
12768;SDS011;6448;48.916;8.990;2023-04-01T02:33:45;1.23;;;0.75;;
12768;SDS011;6448;48.916;8.990;2023-04-01T02:35:07;0.65;;;0.52;;
12768;SDS011;6448;48.916;8.990;2023-04-01T02:36:23;0.95;;;0.80;;
12768;SDS011;6448;48.916;8.990;2023-04-01T02:37:32;0.93;;;0.70;;
12768;SDS011;6448;48.916;8.990;2023-04-01T02:38:37;0.70;;;0.60;;
12768;SDS011;6448;48.916;8.990;2023-04-01T02:40:07;0.80;;;0.60;;
12768;SDS011;6448;48.916;8.990;2023-04-01T02:41:11;0.80;;;0.68;;
12768;SDS011;6448;48.916;8.990;2023-04-01T02:42:42;0.88;;;0.68;;
12768;SDS011;6448;48.916;8.990;2023-04-01T02:43:46;1.20;;;0.70;;
12768;SDS011;6448;48.916;8.990;2023-04-01T02:45:13;0.80;;;0.73;;
12768;SDS011;6448;48.916;8.990;2023-04-01T02:46:28;0.75;;;0.68;;
12768;SDS011;6448;48.916;8.990;2023-04-01T02:47:36;1.05;;;0.70;;
12768;SDS011;6448;48.916;8.990;2023-04-01T02:48:46;1.10;;;0.70;;
12768;SDS011;6448;48.916;8.990;2023-04-01T02:49:58;0.95;;;0.70;;
12768;SDS011;6448;48.916;8.990;2023-04-01T02:50:59;0.80;;;0.70;;
12768;SDS011;6448;48.916;8.990;2023-04-01T02:52:04;0.63;;;0.63;;
12768;SDS011;6448;48.916;8.990;2023-04-01T02:53:10;0.85;;;0.70;;
12768;SDS011;6448;48.916;8.990;2023-04-01T02:54:15;1.15;;;0.70;;
12768;SDS011;6448;48.916;8.990;2023-04-01T02:55:20;0.93;;;0.80;;
12768;SDS011;6448;48.916;8.990;2023-04-01T02:56:22;1.00;;;0.70;;
12768;SDS011;6448;48.916;8.990;2023-04-01T02:57:26;0.68;;;0.57;;
12768;SDS011;6448;48.916;8.990;2023-04-01T02:58:30;0.60;;;0.57;;
12768;SDS011;6448;48.916;8.990;2023-04-01T02:59:34;1.40;;;0.90;;
12768;SDS011;6448;48.916;8.990;2023-04-01T03:00:38;0.95;;;0.80;;
12768;SDS011;6448;48.916;8.990;2023-04-01T03:01:39;0.70;;;0.70;;
12768;SDS011;6448;48.916;8.990;2023-04-01T03:02:46;1.00;;;0.73;;
12768;SDS011;6448;48.916;8.990;2023-04-01T03:03:47;0.70;;;0.60;;
12768;SDS011;6448;48.916;8.990;2023-04-01T03:04:55;0.80;;;0.60;;
12768;SDS011;6448;48.916;8.990;2023-04-01T03:06:11;0.60;;;0.60;;
12768;SDS011;6448;48.916;8.990;2023-04-01T03:07:21;1.10;;;0.77;;
12768;SDS011;6448;48.916;8.990;2023-04-01T03:08:24;1.17;;;0.75;;
12768;SDS011;6448;48.916;8.990;2023-04-01T03:09:28;0.77;;;0.70;;
12768;SDS011;6448;48.916;8.990;2023-04-01T03:10:29;0.70;;;0.68;;
12768;SDS011;6448;48.916;8.990;2023-04-01T03:11:31;0.88;;;0.70;;
12768;SDS011;6448;48.916;8.990;2023-04-01T03:12:31;0.85;;;0.70;;
12768;SDS011;6448;48.916;8.990;2023-04-01T03:13:41;0.70;;;0.60;;
12768;SDS011;6448;48.916;8.990;2023-04-01T03:14:50;0.70;;;0.60;;
12768;SDS011;6448;48.916;8.990;2023-04-01T03:15:54;0.90;;;0.70;;
12768;SDS011;6448;48.916;8.990;2023-04-01T03:16:58;0.90;;;0.70;;
12768;SDS011;6448;48.916;8.990;2023-04-01T03:17:58;0.57;;;0.55;;
12768;SDS011;6448;48.916;8.990;2023-04-01T03:19:00;0.75;;;0.63;;
12768;SDS011;6448;48.916;8.990;2023-04-01T03:20:03;0.75;;;0.63;;
12768;SDS011;6448;48.916;8.990;2023-04-01T03:21:12;0.90;;;0.68;;
12768;SDS011;6448;48.916;8.990;2023-04-01T03:22:17;0.67;;;0.67;;
12768;SDS011;6448;48.916;8.990;2023-04-01T03:23:22;0.63;;;0.63;;
12768;SDS011;6448;48.916;8.990;2023-04-01T03:24:24;0.60;;;0.60;;
12768;SDS011;6448;48.916;8.990;2023-04-01T03:25:31;0.85;;;0.60;;
12768;SDS011;6448;48.916;8.990;2023-04-01T03:26:35;0.63;;;0.60;;
12768;SDS011;6448;48.916;8.990;2023-04-01T03:27:37;0.70;;;0.70;;
12768;SDS011;6448;48.916;8.990;2023-04-01T03:28:38;0.95;;;0.70;;
12768;SDS011;6448;48.916;8.990;2023-04-01T03:29:42;0.65;;;0.60;;
12768;SDS011;6448;48.916;8.990;2023-04-01T03:30:47;0.70;;;0.60;;
12768;SDS011;6448;48.916;8.990;2023-04-01T03:31:49;0.40;;;0.40;;
12768;SDS011;6448;48.916;8.990;2023-04-01T03:33:16;0.88;;;0.60;;
12768;SDS011;6448;48.916;8.990;2023-04-01T03:34:18;0.60;;;0.60;;
12768;SDS011;6448;48.916;8.990;2023-04-01T03:35:19;0.70;;;0.50;;
12768;SDS011;6448;48.916;8.990;2023-04-01T03:36:21;1.10;;;0.70;;
12768;SDS011;6448;48.916;8.990;2023-04-01T03:37:22;0.65;;;0.50;;
12768;SDS011;6448;48.916;8.990;2023-04-01T03:38:26;0.60;;;0.60;;
12768;SDS011;6448;48.916;8.990;2023-04-01T03:39:27;0.60;;;0.60;;
12768;SDS011;6448;48.916;8.990;2023-04-01T03:40:29;0.50;;;0.50;;
12768;SDS011;6448;48.916;8.990;2023-04-01T03:41:30;0.90;;;0.73;;
12768;SDS011;6448;48.916;8.990;2023-04-01T03:42:33;1.08;;;0.57;;
12768;SDS011;6448;48.916;8.990;2023-04-01T03:43:35;0.60;;;0.50;;
12768;SDS011;6448;48.916;8.990;2023-04-01T03:44:38;1.02;;;0.63;;
12768;SDS011;6448;48.916;8.990;2023-04-01T03:45:43;1.08;;;0.73;;
12768;SDS011;6448;48.916;8.990;2023-04-01T03:46:46;0.93;;;0.60;;
12768;SDS011;6448;48.916;8.990;2023-04-01T03:47:49;0.40;;;0.40;;
12768;SDS011;6448;48.916;8.990;2023-04-01T03:48:51;0.70;;;0.60;;
12768;SDS011;6448;48.916;8.990;2023-04-01T03:49:53;0.50;;;0.50;;
12768;SDS011;6448;48.916;8.990;2023-04-01T03:50:55;0.65;;;0.50;;
12768;SDS011;6448;48.916;8.990;2023-04-01T03:51:57;1.10;;;0.70;;
12768;SDS011;6448;48.916;8.990;2023-04-01T03:52:59;0.77;;;0.70;;
12768;SDS011;6448;48.916;8.990;2023-04-01T03:54:04;0.50;;;0.50;;
12768;SDS011;6448;48.916;8.990;2023-04-01T03:55:09;1.30;;;0.70;;
12768;SDS011;6448;48.916;8.990;2023-04-01T03:56:12;0.90;;;0.60;;
12768;SDS011;6448;48.916;8.990;2023-04-01T03:57:14;0.70;;;0.70;;
12768;SDS011;6448;48.916;8.990;2023-04-01T03:58:16;0.55;;;0.55;;
12768;SDS011;6448;48.916;8.990;2023-04-01T03:59:18;0.60;;;0.60;;
12768;SDS011;6448;48.916;8.990;2023-04-01T04:00:19;0.60;;;0.60;;
12768;SDS011;6448;48.916;8.990;2023-04-01T04:01:27;0.73;;;0.73;;
12768;SDS011;6448;48.916;8.990;2023-04-01T04:02:29;0.50;;;0.50;;
12768;SDS011;6448;48.916;8.990;2023-04-01T04:03:31;0.93;;;0.70;;
12768;SDS011;6448;48.916;8.990;2023-04-01T04:04:32;0.80;;;0.73;;
12768;SDS011;6448;48.916;8.990;2023-04-01T04:05:34;0.80;;;0.60;;
12768;SDS011;6448;48.916;8.990;2023-04-01T04:06:36;0.65;;;0.50;;
12768;SDS011;6448;48.916;8.990;2023-04-01T04:07:38;0.50;;;0.50;;
12768;SDS011;6448;48.916;8.990;2023-04-01T04:08:41;0.98;;;0.60;;
12768;SDS011;6448;48.916;8.990;2023-04-01T04:09:45;0.60;;;0.50;;
12768;SDS011;6448;48.916;8.990;2023-04-01T04:10:53;0.60;;;0.60;;
12768;SDS011;6448;48.916;8.990;2023-04-01T04:11:55;0.63;;;0.50;;
12768;SDS011;6448;48.916;8.990;2023-04-01T04:12:57;0.52;;;0.50;;
12768;SDS011;6448;48.916;8.990;2023-04-01T04:13:59;0.60;;;0.50;;
12768;SDS011;6448;48.916;8.990;2023-04-01T04:15:02;0.60;;;0.50;;
12768;SDS011;6448;48.916;8.990;2023-04-01T04:16:03;0.63;;;0.60;;
12768;SDS011;6448;48.916;8.990;2023-04-01T04:17:07;0.73;;;0.60;;
12768;SDS011;6448;48.916;8.990;2023-04-01T04:18:14;1.05;;;0.75;;
12768;SDS011;6448;48.916;8.990;2023-04-01T04:19:15;0.90;;;0.70;;
12768;SDS011;6448;48.916;8.990;2023-04-01T04:20:17;0.60;;;0.60;;
12768;SDS011;6448;48.916;8.990;2023-04-01T04:21:19;0.60;;;0.60;;
12768;SDS011;6448;48.916;8.990;2023-04-01T04:22:20;0.80;;;0.70;;
12768;SDS011;6448;48.916;8.990;2023-04-01T04:23:22;1.03;;;0.63;;
12768;SDS011;6448;48.916;8.990;2023-04-01T04:24:23;1.15;;;0.60;;
12768;SDS011;6448;48.916;8.990;2023-04-01T04:25:40;0.63;;;0.60;;
12768;SDS011;6448;48.916;8.990;2023-04-01T04:26:41;0.98;;;0.60;;
12768;SDS011;6448;48.916;8.990;2023-04-01T04:27:43;0.60;;;0.60;;
12768;SDS011;6448;48.916;8.990;2023-04-01T04:28:46;0.70;;;0.60;;
12768;SDS011;6448;48.916;8.990;2023-04-01T04:29:49;0.95;;;0.63;;
12768;SDS011;6448;48.916;8.990;2023-04-01T04:30:53;0.77;;;0.63;;
12768;SDS011;6448;48.916;8.990;2023-04-01T04:31:55;0.70;;;0.65;;
12768;SDS011;6448;48.916;8.990;2023-04-01T04:32:56;0.80;;;0.70;;
12768;SDS011;6448;48.916;8.990;2023-04-01T04:33:58;1.23;;;0.70;;
12768;SDS011;6448;48.916;8.990;2023-04-01T04:35:00;0.80;;;0.70;;
12768;SDS011;6448;48.916;8.990;2023-04-01T04:36:02;0.90;;;0.80;;
12768;SDS011;6448;48.916;8.990;2023-04-01T04:37:04;0.60;;;0.60;;
12768;SDS011;6448;48.916;8.990;2023-04-01T04:38:09;1.00;;;0.70;;
12768;SDS011;6448;48.916;8.990;2023-04-01T04:39:10;0.70;;;0.70;;
12768;SDS011;6448;48.916;8.990;2023-04-01T04:40:14;1.17;;;0.70;;
12768;SDS011;6448;48.916;8.990;2023-04-01T04:41:22;0.98;;;0.75;;
12768;SDS011;6448;48.916;8.990;2023-04-01T04:42:51;0.70;;;0.67;;
12768;SDS011;6448;48.916;8.990;2023-04-01T04:44:03;1.45;;;0.70;;
12768;SDS011;6448;48.916;8.990;2023-04-01T04:45:19;0.93;;;0.70;;
12768;SDS011;6448;48.916;8.990;2023-04-01T04:46:36;0.60;;;0.60;;
12768;SDS011;6448;48.916;8.990;2023-04-01T04:47:48;1.35;;;0.82;;
12768;SDS011;6448;48.916;8.990;2023-04-01T04:48:51;0.60;;;0.60;;
12768;SDS011;6448;48.916;8.990;2023-04-01T04:50:14;1.15;;;0.70;;
12768;SDS011;6448;48.916;8.990;2023-04-01T04:51:25;0.93;;;0.70;;
12768;SDS011;6448;48.916;8.990;2023-04-01T04:52:49;0.68;;;0.68;;
12768;SDS011;6448;48.916;8.990;2023-04-01T04:53:59;0.75;;;0.70;;
12768;SDS011;6448;48.916;8.990;2023-04-01T04:55:18;1.05;;;0.77;;
12768;SDS011;6448;48.916;8.990;2023-04-01T04:58:25;1.05;;;0.77;;
12768;SDS011;6448;48.916;8.990;2023-04-01T04:59:58;0.70;;;0.60;;
12768;SDS011;6448;48.916;8.990;2023-04-01T05:01:36;1.10;;;0.70;;
12768;SDS011;6448;48.916;8.990;2023-04-01T05:04:42;1.13;;;0.80;;
12768;SDS011;6448;48.916;8.990;2023-04-01T05:05:57;0.80;;;0.70;;
12768;SDS011;6448;48.916;8.990;2023-04-01T05:07:14;0.93;;;0.70;;
12768;SDS011;6448;48.916;8.990;2023-04-01T05:10:00;0.73;;;0.70;;
12768;SDS011;6448;48.916;8.990;2023-04-01T05:11:11;0.98;;;0.70;;
12768;SDS011;6448;48.916;8.990;2023-04-01T05:12:20;1.20;;;0.80;;
12768;SDS011;6448;48.916;8.990;2023-04-01T05:13:42;0.85;;;0.70;;
12768;SDS011;6448;48.916;8.990;2023-04-01T05:14:46;1.02;;;0.70;;
12768;SDS011;6448;48.916;8.990;2023-04-01T05:16:10;0.82;;;0.70;;
12768;SDS011;6448;48.916;8.990;2023-04-01T05:17:34;1.10;;;0.80;;
12768;SDS011;6448;48.916;8.990;2023-04-01T05:18:38;0.90;;;0.80;;
12768;SDS011;6448;48.916;8.990;2023-04-01T05:19:49;1.17;;;0.75;;
12768;SDS011;6448;48.916;8.990;2023-04-01T05:21:04;1.40;;;0.70;;
12768;SDS011;6448;48.916;8.990;2023-04-01T05:22:30;1.08;;;0.70;;
12768;SDS011;6448;48.916;8.990;2023-04-01T05:23:35;1.20;;;0.70;;
12768;SDS011;6448;48.916;8.990;2023-04-01T05:24:40;1.38;;;0.70;;
12768;SDS011;6448;48.916;8.990;2023-04-01T05:26:58;2.58;;;0.77;;
12768;SDS011;6448;48.916;8.990;2023-04-01T05:28:08;0.90;;;0.70;;
12768;SDS011;6448;48.916;8.990;2023-04-01T05:29:19;1.08;;;0.90;;
12768;SDS011;6448;48.916;8.990;2023-04-01T05:30:31;2.50;;;0.90;;
12768;SDS011;6448;48.916;8.990;2023-04-01T05:32:08;0.98;;;0.80;;
12768;SDS011;6448;48.916;8.990;2023-04-01T05:33:36;0.83;;;0.80;;
12768;SDS011;6448;48.916;8.990;2023-04-01T05:35:01;0.85;;;0.70;;
12768;SDS011;6448;48.916;8.990;2023-04-01T05:36:11;0.95;;;0.77;;
12768;SDS011;6448;48.916;8.990;2023-04-01T05:37:42;1.15;;;0.68;;
12768;SDS011;6448;48.916;8.990;2023-04-01T05:38:50;2.05;;;0.70;;
12768;SDS011;6448;48.916;8.990;2023-04-01T05:39:53;1.10;;;0.80;;
12768;SDS011;6448;48.916;8.990;2023-04-01T05:41:03;1.08;;;0.93;;
12768;SDS011;6448;48.916;8.990;2023-04-01T05:42:19;1.17;;;0.80;;
12768;SDS011;6448;48.916;8.990;2023-04-01T05:43:33;0.70;;;0.70;;
12768;SDS011;6448;48.916;8.990;2023-04-01T05:45:10;0.65;;;0.65;;
12768;SDS011;6448;48.916;8.990;2023-04-01T05:46:44;0.90;;;0.80;;
12768;SDS011;6448;48.916;8.990;2023-04-01T05:47:58;0.70;;;0.60;;
12768;SDS011;6448;48.916;8.990;2023-04-01T05:49:19;1.10;;;0.63;;
12768;SDS011;6448;48.916;8.990;2023-04-01T05:50:30;0.85;;;0.80;;
12768;SDS011;6448;48.916;8.990;2023-04-01T05:51:45;0.80;;;0.80;;
12768;SDS011;6448;48.916;8.990;2023-04-01T05:52:54;0.90;;;0.70;;
12768;SDS011;6448;48.916;8.990;2023-04-01T05:53:56;0.90;;;0.60;;
12768;SDS011;6448;48.916;8.990;2023-04-01T05:55:30;0.73;;;0.63;;
12768;SDS011;6448;48.916;8.990;2023-04-01T05:56:52;0.80;;;0.80;;
12768;SDS011;6448;48.916;8.990;2023-04-01T05:58:03;0.93;;;0.68;;
12768;SDS011;6448;48.916;8.990;2023-04-01T06:01:36;1.30;;;0.90;;
12768;SDS011;6448;48.916;8.990;2023-04-01T06:02:43;0.82;;;0.73;;
12768;SDS011;6448;48.916;8.990;2023-04-01T06:05:48;0.75;;;0.63;;
12768;SDS011;6448;48.916;8.990;2023-04-01T06:06:51;0.80;;;0.70;;
12768;SDS011;6448;48.916;8.990;2023-04-01T06:07:59;1.02;;;0.60;;
12768;SDS011;6448;48.916;8.990;2023-04-01T06:09:13;1.05;;;0.80;;
12768;SDS011;6448;48.916;8.990;2023-04-01T06:10:39;0.82;;;0.60;;
12768;SDS011;6448;48.916;8.990;2023-04-01T06:12:05;1.10;;;0.80;;
12768;SDS011;6448;48.916;8.990;2023-04-01T06:13:34;0.68;;;0.68;;
12768;SDS011;6448;48.916;8.990;2023-04-01T06:16:52;0.60;;;0.52;;
12768;SDS011;6448;48.916;8.990;2023-04-01T06:20:06;0.57;;;0.57;;
12768;SDS011;6448;48.916;8.990;2023-04-01T06:23:20;1.00;;;0.77;;
12768;SDS011;6448;48.916;8.990;2023-04-01T06:27:43;1.17;;;0.80;;
12768;SDS011;6448;48.916;8.990;2023-04-01T06:40:08;0.60;;;0.60;;
12768;SDS011;6448;48.916;8.990;2023-04-01T06:43:56;0.65;;;0.63;;
12768;SDS011;6448;48.916;8.990;2023-04-01T06:47:44;0.70;;;0.70;;
12768;SDS011;6448;48.916;8.990;2023-04-01T06:49:24;0.82;;;0.63;;
12768;SDS011;6448;48.916;8.990;2023-04-01T06:51:10;0.70;;;0.60;;
12768;SDS011;6448;48.916;8.990;2023-04-01T06:53:17;0.50;;;0.43;;
12768;SDS011;6448;48.916;8.990;2023-04-01T06:55:29;0.80;;;0.55;;
12768;SDS011;6448;48.916;8.990;2023-04-01T06:56:57;0.55;;;0.50;;
12768;SDS011;6448;48.916;8.990;2023-04-01T07:04:14;0.70;;;0.50;;
12768;SDS011;6448;48.916;8.990;2023-04-01T07:07:03;0.57;;;0.57;;
12768;SDS011;6448;48.916;8.990;2023-04-01T07:08:36;0.60;;;0.60;;
12768;SDS011;6448;48.916;8.990;2023-04-01T07:09:48;0.40;;;0.32;;
12768;SDS011;6448;48.916;8.990;2023-04-01T07:11:29;0.88;;;0.52;;
12768;SDS011;6448;48.916;8.990;2023-04-01T07:13:04;0.70;;;0.60;;
12768;SDS011;6448;48.916;8.990;2023-04-01T07:14:28;0.43;;;0.43;;
12768;SDS011;6448;48.916;8.990;2023-04-01T07:15:42;0.88;;;0.40;;
12768;SDS011;6448;48.916;8.990;2023-04-01T07:18:02;0.47;;;0.43;;
12768;SDS011;6448;48.916;8.990;2023-04-01T07:19:12;0.80;;;0.52;;
12768;SDS011;6448;48.916;8.990;2023-04-01T07:22:32;0.50;;;0.50;;
12768;SDS011;6448;48.916;8.990;2023-04-01T07:24:24;0.40;;;0.40;;
12768;SDS011;6448;48.916;8.990;2023-04-01T07:25:53;0.50;;;0.45;;
12768;SDS011;6448;48.916;8.990;2023-04-01T07:28:04;0.52;;;0.43;;
12768;SDS011;6448;48.916;8.990;2023-04-01T07:29:38;0.55;;;0.55;;
12768;SDS011;6448;48.916;8.990;2023-04-01T07:30:50;0.30;;;0.30;;
12768;SDS011;6448;48.916;8.990;2023-04-01T07:32:16;0.80;;;0.50;;
12768;SDS011;6448;48.916;8.990;2023-04-01T07:34:11;0.40;;;0.40;;
12768;SDS011;6448;48.916;8.990;2023-04-01T07:35:26;0.40;;;0.40;;
12768;SDS011;6448;48.916;8.990;2023-04-01T07:36:38;0.50;;;0.40;;
12768;SDS011;6448;48.916;8.990;2023-04-01T07:37:54;0.40;;;0.40;;
12768;SDS011;6448;48.916;8.990;2023-04-01T07:39:23;0.40;;;0.40;;
12768;SDS011;6448;48.916;8.990;2023-04-01T07:41:03;0.60;;;0.50;;
12768;SDS011;6448;48.916;8.990;2023-04-01T07:42:16;0.30;;;0.30;;
12768;SDS011;6448;48.916;8.990;2023-04-01T07:43:49;0.40;;;0.40;;
12768;SDS011;6448;48.916;8.990;2023-04-01T07:45:09;1.00;;;0.50;;
12768;SDS011;6448;48.916;8.990;2023-04-01T07:46:58;0.50;;;0.50;;
12768;SDS011;6448;48.916;8.990;2023-04-01T07:48:22;0.65;;;0.50;;
12768;SDS011;6448;48.916;8.990;2023-04-01T07:49:47;0.30;;;0.30;;
12768;SDS011;6448;48.916;8.990;2023-04-01T07:51:15;0.50;;;0.50;;
12768;SDS011;6448;48.916;8.990;2023-04-01T07:52:22;0.50;;;0.50;;
12768;SDS011;6448;48.916;8.990;2023-04-01T07:53:41;0.50;;;0.50;;
12768;SDS011;6448;48.916;8.990;2023-04-01T07:54:54;0.50;;;0.50;;
12768;SDS011;6448;48.916;8.990;2023-04-01T07:56:02;0.52;;;0.52;;
12768;SDS011;6448;48.916;8.990;2023-04-01T07:57:12;0.40;;;0.40;;
12768;SDS011;6448;48.916;8.990;2023-04-01T07:58:41;0.50;;;0.50;;
12768;SDS011;6448;48.916;8.990;2023-04-01T08:00:20;0.90;;;0.40;;
12768;SDS011;6448;48.916;8.990;2023-04-01T08:02:09;0.50;;;0.50;;
12768;SDS011;6448;48.916;8.990;2023-04-01T08:03:37;0.47;;;0.47;;
12768;SDS011;6448;48.916;8.990;2023-04-01T08:05:16;0.40;;;0.40;;
12768;SDS011;6448;48.916;8.990;2023-04-01T08:06:39;0.35;;;0.35;;
12768;SDS011;6448;48.916;8.990;2023-04-01T08:08:11;0.40;;;0.40;;
12768;SDS011;6448;48.916;8.990;2023-04-01T08:09:59;0.32;;;0.32;;
12768;SDS011;6448;48.916;8.990;2023-04-01T08:11:41;0.57;;;0.50;;
12768;SDS011;6448;48.916;8.990;2023-04-01T08:14:07;0.70;;;0.50;;
12768;SDS011;6448;48.916;8.990;2023-04-01T08:15:35;0.50;;;0.50;;
12768;SDS011;6448;48.916;8.990;2023-04-01T08:17:30;0.40;;;0.40;;
12768;SDS011;6448;48.916;8.990;2023-04-01T08:19:06;0.60;;;0.60;;
12768;SDS011;6448;48.916;8.990;2023-04-01T09:55:48;0.60;;;0.60;;
12768;SDS011;6448;48.916;8.990;2023-04-01T10:42:12;0.30;;;0.30;;
12768;SDS011;6448;48.916;8.990;2023-04-01T10:43:58;0.30;;;0.30;;
12768;SDS011;6448;48.916;8.990;2023-04-01T10:45:30;0.40;;;0.40;;
12768;SDS011;6448;48.916;8.990;2023-04-01T10:50:39;0.40;;;0.40;;
12768;SDS011;6448;48.916;8.990;2023-04-01T10:54:17;0.40;;;0.40;;
12768;SDS011;6448;48.916;8.990;2023-04-01T11:01:23;0.30;;;0.30;;
12768;SDS011;6448;48.916;8.990;2023-04-01T11:03:32;0.20;;;0.20;;
12768;SDS011;6448;48.916;8.990;2023-04-01T11:18:33;0.20;;;0.20;;
12768;SDS011;6448;48.916;8.990;2023-04-01T11:20:09;0.30;;;0.30;;